Attapulgus, Georgia
Current Conditions -  °F | °C
As of 10:55 AM on Thursday 29 Jan 2015 (Local Time) from K2J9 Reporting Station
Clear Clear  
Wind Chill: 55°   Ceiling: Unl
Heat Index: 55°   Visibility: 10mi
Dew Point: 32°   Wind: 7mph
Humidity: 41%   Direction: 160°SSE
Pressure: 30.37"   Gusts: NA
Location:  30.75°N, 84.48°W
Report Text: K2J9 291555Z AUTO 16006KT 10SM CLR 13/00 A3037 RMK AO1
Loading
Personal Weather Stations






























Interactive Weather Map New forecast layout! Learn more

10-Day Weather Forecast

Advertisements
Track Severe Weather on mobile